Time;durP1;ratioP1;P1;durP2;ratioP2;P2;SDS_P1;SDS_P2;PMS_P1;PMS_P2;Temp;Humidity;BMP_temperature;BMP_pressure;BME280_temperature;BME280_humidity;BME280_pressure;Samples;Min_cycle;Max_cycle;Signal;HPM_P1;HPM_P2
2022/01/14 00:00:47;;;;;;;25.43;17.70;;;5.60;99.90;;;;;;5035585;28;20498;-52
2022/01/14 00:03:14;;;;;;;37.07;18.00;;;5.60;99.90;;;;;;5032252;28;20473;-49
2022/01/14 00:05:42;;;;;;;27.07;16.17;;;5.60;99.90;;;;;;5032606;28;20541;-48
2022/01/14 00:08:09;;;;;;;30.70;17.13;;;5.60;99.90;;;;;;5033353;28;20498;-49
2022/01/14 00:10:36;;;;;;;27.83;17.50;;;5.60;99.90;;;;;;5033701;28;20494;-52
2022/01/14 00:13:11;;;;;;;28.50;16.33;;;5.60;99.90;;;;;;5033723;28;20469;-53
2022/01/14 00:15:38;;;;;;;24.97;16.07;;;5.60;99.90;;;;;;5032585;28;20505;-52
2022/01/14 00:18:05;;;;;;;27.77;16.57;;;5.60;99.90;;;;;;5035421;28;20554;-51
2022/01/14 00:20:31;;;;;;;27.70;16.70;;;5.60;99.90;;;;;;5035302;28;20878;-52
2022/01/14 00:23:00;;;;;;;26.60;17.37;;;5.70;99.90;;;;;;5039446;28;20536;-52
2022/01/14 00:33:41;;;;;;;26.23;16.47;;;5.60;99.90;;;;;;5033639;28;21057;-51
2022/01/14 00:36:08;;;;;;;29.00;16.67;;;5.70;99.90;;;;;;5035828;28;20576;-52
2022/01/14 00:38:36;;;;;;;27.90;15.80;;;5.70;99.90;;;;;;5030971;28;20489;-51
2022/01/14 00:41:02;;;;;;;31.50;16.60;;;5.70;99.90;;;;;;5033046;28;20912;-51
2022/01/14 00:43:29;;;;;;;21.50;14.70;;;5.70;99.90;;;;;;5037990;28;21162;-52
2022/01/14 00:45:56;;;;;;;26.67;16.20;;;5.70;99.90;;;;;;5035423;28;20514;-51
2022/01/14 00:48:23;;;;;;;24.23;15.50;;;5.70;99.90;;;;;;5038672;28;20446;-51
2022/01/14 00:50:49;;;;;;;29.00;15.30;;;5.70;99.90;;;;;;5040185;28;20510;-52
2022/01/14 00:53:16;;;;;;;22.67;15.13;;;5.70;99.90;;;;;;5029717;28;20546;-52
2022/01/14 00:55:52;;;;;;;28.30;15.37;;;5.70;99.90;;;;;;5035068;28;20549;-51
2022/01/14 01:01:03;;;;;;;29.17;16.03;;;5.70;99.90;;;;;;5033516;28;20445;-51
2022/01/14 01:03:29;;;;;;;27.33;15.37;;;5.70;99.90;;;;;;5034176;28;20502;-52
2022/01/14 01:05:56;;;;;;;22.83;15.70;;;5.70;99.90;;;;;;5036706;28;20516;-51
2022/01/14 01:08:25;;;;;;;22.37;15.90;;;5.70;99.90;;;;;;5035542;28;20488;-51
2022/01/14 01:10:53;;;;;;;29.67;16.00;;;5.70;99.90;;;;;;5032638;28;20551;-51
2022/01/14 01:13:23;;;;;;;24.70;16.20;;;5.80;99.90;;;;;;5036054;28;20466;-52
2022/01/14 01:15:50;;;;;;;25.00;16.10;;;5.70;99.90;;;;;;5032324;28;21388;-53
2022/01/14 01:18:18;;;;;;;23.23;16.03;;;5.70;99.90;;;;;;5036660;28;20985;-52
2022/01/14 01:20:44;;;;;;;25.50;16.60;;;5.70;99.90;;;;;;5039036;28;20462;-52
2022/01/14 01:23:11;;;;;;;30.37;16.70;;;5.70;99.90;;;;;;5036071;28;20960;-51
2022/01/14 01:25:42;;;;;;;28.37;16.37;;;5.70;99.90;;;;;;5033698;28;20622;-51
2022/01/14 01:28:10;;;;;;;29.67;16.60;;;5.70;99.90;;;;;;5034357;28;20486;-52
2022/01/14 01:31:05;;;;;;;31.90;15.90;;;5.70;99.90;;;;;;5033523;28;20487;-52
2022/01/14 01:33:32;;;;;;;29.77;15.90;;;5.70;99.90;;;;;;5030122;28;21058;-52
2022/01/14 01:35:59;;;;;;;23.93;15.90;;;5.80;99.90;;;;;;5031803;28;20482;-53
2022/01/14 01:38:26;;;;;;;29.43;16.27;;;5.70;99.90;;;;;;5035366;28;20516;-52
2022/01/14 01:40:52;;;;;;;33.47;15.60;;;5.70;99.90;;;;;;5034162;28;22319;-51
2022/01/14 01:43:25;;;;;;;26.73;15.40;;;5.70;99.90;;;;;;5037013;28;20458;-52
2022/01/14 01:45:53;;;;;;;31.80;16.17;;;5.70;99.90;;;;;;5031756;28;20477;-52
2022/01/14 01:48:20;;;;;;;28.03;16.43;;;5.70;99.90;;;;;;5029844;28;20462;-52
2022/01/14 01:50:47;;;;;;;32.07;16.20;;;5.70;99.90;;;;;;5031553;28;20549;-52
2022/01/14 01:53:13;;;;;;;27.30;15.20;;;5.70;99.90;;;;;;5035970;28;20544;-51
2022/01/14 01:55:40;;;;;;;28.27;15.20;;;5.70;99.90;;;;;;5034754;28;20617;-51
2022/01/14 01:58:07;;;;;;;45.03;15.70;;;5.70;99.90;;;;;;5036752;28;20952;-52
2022/01/14 02:00:35;;;;;;;26.87;15.00;;;5.70;99.90;;;;;;5033282;28;20570;-51
2022/01/14 02:03:04;;;;;;;33.90;16.40;;;5.70;99.90;;;;;;5037672;28;20498;-51
2022/01/14 02:05:31;;;;;;;28.07;16.50;;;5.70;99.90;;;;;;5032886;28;20547;-51
2022/01/14 02:07:58;;;;;;;24.47;14.33;;;5.70;99.90;;;;;;5030671;28;20565;-52
2022/01/14 02:10:25;;;;;;;30.60;17.87;;;5.70;99.90;;;;;;5026467;28;20566;-51
2022/01/14 02:12:53;;;;;;;27.67;15.27;;;5.70;99.90;;;;;;5035899;28;20970;-52
2022/01/14 02:15:30;;;;;;;27.40;13.97;;;5.70;97.90;;;;;;5032501;28;20475;-51
2022/01/14 02:18:27;;;;;;;25.40;15.00;;;5.70;95.00;;;;;;5034611;28;20845;-51
2022/01/14 02:23:44;;;;;;;30.80;13.97;;;5.70;94.80;;;;;;5035873;28;20446;-52
2022/01/14 02:26:11;;;;;;;34.57;15.30;;;5.80;93.70;;;;;;5038029;28;20613;-52
2022/01/14 02:28:37;;;;;;;23.07;13.60;;;5.80;91.00;;;;;;5035718;28;20502;-52
2022/01/14 02:31:04;;;;;;;30.13;14.70;;;5.80;93.10;;;;;;5034631;28;20895;-52
2022/01/14 02:33:31;;;;;;;25.83;13.90;;;5.70;87.40;;;;;;5034709;28;20578;-52
2022/01/14 02:36:00;;;;;;;26.30;15.57;;;5.70;84.20;;;;;;5034030;28;20479;-51
2022/01/14 02:38:27;;;;;;;24.70;14.17;;;5.70;82.70;;;;;;5035756;28;20559;-52
2022/01/14 02:40:54;;;;;;;26.33;13.73;;;5.70;76.40;;;;;;5031557;28;20552;-52
2022/01/14 02:43:20;;;;;;;29.83;14.37;;;5.70;72.70;;;;;;5037972;28;20558;-52
2022/01/14 02:45:51;;;;;;;24.53;14.50;;;5.70;70.90;;;;;;5034271;28;20573;-52
2022/01/14 02:48:19;;;;;;;26.70;14.43;;;5.70;70.60;;;;;;5028372;28;20537;-53
2022/01/14 02:50:55;;;;;;;27.10;14.40;;;5.70;66.30;;;;;;5040742;28;20938;-52
2022/01/14 02:53:28;;;;;;;37.27;15.80;;;5.60;64.00;;;;;;5028690;28;20897;-51
2022/01/14 02:55:56;;;;;;;21.70;14.13;;;5.60;57.50;;;;;;5034853;28;20890;-53
2022/01/14 02:58:24;;;;;;;29.03;16.47;;;5.60;53.30;;;;;;5031734;28;20575;-52
2022/01/14 03:00:52;;;;;;;23.33;15.00;;;5.60;50.90;;;;;;5035891;28;20541;-53
2022/01/14 03:03:22;;;;;;;35.30;15.90;;;5.60;50.10;;;;;;5033098;28;22239;-52
2022/01/14 03:05:49;;;;;;;27.27;15.00;;;5.60;48.90;;;;;;5038859;28;20486;-52
2022/01/14 03:08:17;;;;;;;29.80;16.50;;;5.60;46.30;;;;;;5035316;28;20490;-52
2022/01/14 03:10:46;;;;;;;34.30;17.33;;;5.60;45.00;;;;;;5034820;28;20557;-52
2022/01/14 03:13:13;;;;;;;29.83;15.40;;;5.60;35.20;;;;;;5036266;28;20541;-52
2022/01/14 03:15:40;;;;;;;34.03;17.93;;;5.50;27.30;;;;;;5032205;28;21789;-52
2022/01/14 03:18:06;;;;;;;36.57;16.63;;;5.50;82.40;;;;;;5033870;28;20553;-51
2022/01/14 03:20:48;;;;;;;33.30;15.83;;;5.50;92.20;;;;;;5034213;28;20555;-52
2022/01/14 03:23:16;;;;;;;28.80;17.33;;;5.50;99.90;;;;;;5035144;28;20867;-52
2022/01/14 03:25:49;;;;;;;23.83;16.20;;;5.40;99.90;;;;;;5037305;28;21181;-52
2022/01/14 03:28:22;;;;;;;41.07;17.30;;;5.50;99.90;;;;;;5032936;28;20554;-52
2022/01/14 03:30:50;;;;;;;28.50;16.70;;;5.40;99.90;;;;;;5036447;28;20872;-52
2022/01/14 03:33:17;;;;;;;27.77;18.37;;;5.40;99.90;;;;;;5034208;28;20509;-51
2022/01/14 03:35:44;;;;;;;29.93;17.37;;;5.30;99.90;;;;;;5033365;28;21005;-52
2022/01/14 03:38:11;;;;;;;28.03;17.80;;;5.30;99.90;;;;;;5034393;28;20542;-51
2022/01/14 03:40:38;;;;;;;34.07;16.83;;;5.30;99.90;;;;;;5034385;28;20524;-51
2022/01/14 03:43:05;;;;;;;27.80;17.90;;;5.30;99.90;;;;;;5031731;28;20584;-51
2022/01/14 03:45:33;;;;;;;30.60;18.43;;;5.30;99.90;;;;;;5033341;28;20614;-52
2022/01/14 03:47:59;;;;;;;35.03;17.87;;;5.30;99.90;;;;;;5035679;28;20455;-53
2022/01/14 03:50:27;;;;;;;28.90;17.50;;;5.30;99.90;;;;;;5033703;28;20562;-52
2022/01/14 03:52:54;;;;;;;32.07;17.97;;;5.20;99.90;;;;;;5033546;28;20459;-52
2022/01/14 03:55:21;;;;;;;40.03;18.77;;;5.20;99.90;;;;;;5038772;28;20569;-52
2022/01/14 03:57:47;;;;;;;31.20;17.67;;;5.20;99.90;;;;;;5035039;28;20955;-51
2022/01/14 04:00:15;;;;;;;33.60;17.10;;;5.20;99.90;;;;;;5034512;28;20549;-51
2022/01/14 04:02:43;;;;;;;26.83;17.53;;;5.20;99.90;;;;;;5036478;28;20558;-53
2022/01/14 04:05:11;;;;;;;28.10;16.83;;;5.10;99.90;;;;;;5033483;28;20584;-51
2022/01/14 04:07:37;;;;;;;35.13;18.13;;;5.10;99.30;;;;;;5038820;28;20502;-51
2022/01/14 04:10:05;;;;;;;24.80;15.67;;;5.20;88.40;;;;;;5037598;28;20459;-51
2022/01/14 04:12:44;;;;;;;33.30;18.87;;;5.10;80.60;;;;;;5036048;28;20549;-52
2022/01/14 04:17:58;;;;;;;19.77;15.27;;;5.10;74.60;;;;;;5033992;28;20814;-51
2022/01/14 04:20:25;;;;;;;32.33;17.30;;;5.10;66.30;;;;;;5038583;28;20501;-51
2022/01/14 04:22:51;;;;;;;26.80;15.70;;;5.10;61.70;;;;;;5032137;28;20516;-51
2022/01/14 04:25:18;;;;;;;25.07;15.60;;;5.10;61.70;;;;;;5032977;28;20526;-52
2022/01/14 04:27:45;;;;;;;24.13;15.10;;;5.20;51.30;;;;;;5034676;28;20556;-51
2022/01/14 04:30:12;;;;;;;26.60;15.70;;;5.10;53.30;;;;;;5031793;28;20554;-52
2022/01/14 04:32:39;;;;;;;25.23;14.00;;;5.10;48.00;;;;;;5043497;28;20567;-51
2022/01/14 04:35:08;;;;;;;26.17;15.07;;;5.10;45.90;;;;;;5033640;28;20510;-52
2022/01/14 04:37:35;;;;;;;25.77;14.10;;;5.20;47.10;;;;;;5035186;28;20459;-51
2022/01/14 04:40:02;;;;;;;19.07;14.53;;;5.20;43.10;;;;;;5033665;28;20582;-51
2022/01/14 04:42:29;;;;;;;22.10;15.00;;;5.10;47.90;;;;;;5035897;28;20548;-51
2022/01/14 04:44:56;;;;;;;26.90;16.77;;;5.10;44.40;;;;;;5035658;28;20497;-52
2022/01/14 04:47:32;;;;;;;29.70;17.33;;;5.20;40.50;;;;;;5058201;23;20493;-51
2022/01/14 04:50:00;;;;;;;24.97;15.73;;;5.10;41.10;;;;;;5050182;28;20875;-50
2022/01/14 04:52:29;;;;;;;22.40;14.93;;;5.10;38.50;;;;;;5045973;28;20548;-53
2022/01/14 04:54:56;;;;;;;23.87;15.33;;;5.10;38.50;;;;;;5048450;28;20461;-50
2022/01/14 04:57:22;;;;;;;22.40;13.90;;;5.10;37.10;;;;;;5046405;28;20882;-51
2022/01/14 04:59:49;;;;;;;24.90;15.03;;;5.10;35.70;;;;;;5048923;28;20990;-53
2022/01/14 05:02:16;;;;;;;24.43;14.67;;;5.10;35.70;;;;;;5049948;28;20576;-52
2022/01/14 05:04:44;;;;;;;29.47;14.90;;;5.20;34.30;;;;;;5044654;28;20485;-52
2022/01/14 05:07:15;;;;;;;21.43;13.77;;;5.20;33.10;;;;;;5048930;28;20486;-51
2022/01/14 05:09:55;;;;;;;24.33;12.63;;;5.10;30.10;;;;;;5046766;28;20458;-50
2022/01/14 05:12:22;;;;;;;21.20;13.47;;;5.10;29.40;;;;;;5044394;28;20460;-51
2022/01/14 05:14:49;;;;;;;31.40;13.70;;;5.10;31.90;;;;;;5045242;28;20458;-51
2022/01/14 05:17:15;;;;;;;24.20;13.80;;;5.10;31.70;;;;;;5044381;28;21218;-51
2022/01/14 05:19:42;;;;;;;23.57;13.70;;;5.20;34.60;;;;;;5046910;28;20485;-51
2022/01/14 05:22:09;;;;;;;17.47;11.93;;;5.10;35.90;;;;;;5047169;28;20993;-52
2022/01/14 05:24:35;;;;;;;24.20;12.93;;;5.20;34.80;;;;;;5049288;28;20877;-51
2022/01/14 05:27:03;;;;;;;21.17;13.10;;;5.10;41.90;;;;;;5048768;28;21030;-53
2022/01/14 05:29:30;;;;;;;17.93;11.50;;;5.20;36.50;;;;;;5047615;28;20454;-51
2022/01/14 05:32:02;;;;;;;22.83;11.70;;;5.20;33.90;;;;;;5044633;28;21009;-51
2022/01/14 05:34:29;;;;;;;18.90;10.20;;;5.20;44.30;;;;;;5045414;28;20465;-52
2022/01/14 05:36:55;;;;;;;19.87;11.53;;;5.30;43.30;;;;;;5042969;28;20556;-52
2022/01/14 05:39:23;;;;;;;20.40;11.93;;;5.30;46.60;;;;;;5045206;28;20548;-51
2022/01/14 05:41:50;;;;;;;20.30;10.77;;;5.40;38.00;;;;;;5044600;28;20454;-51
2022/01/14 05:44:18;;;;;;;24.50;11.50;;;5.30;61.60;;;;;;5043896;28;20462;-52
2022/01/14 05:46:45;;;;;;;20.73;11.80;;;5.30;66.50;;;;;;5044079;28;20493;-51
2022/01/14 05:49:12;;;;;;;15.37;10.87;;;5.30;61.70;;;;;;5047590;28;20493;-52
2022/01/14 05:51:39;;;;;;;19.10;11.77;;;5.30;61.70;;;;;;5046631;28;20549;-52
2022/01/14 05:54:05;;;;;;;25.30;12.60;;;5.30;67.60;;;;;;5042979;28;20473;-52
2022/01/14 05:56:32;;;;;;;19.03;11.30;;;5.30;65.70;;;;;;5047818;28;20564;-52
2022/01/14 05:58:59;;;;;;;18.73;13.00;;;5.30;69.40;;;;;;5044886;28;20482;-52
2022/01/14 06:01:26;;;;;;;19.57;12.20;;;5.30;67.20;;;;;;5043575;28;20527;-52
2022/01/14 06:03:53;;;;;;;20.87;12.17;;;5.30;79.50;;;;;;5042663;28;20505;-51
2022/01/14 06:06:19;;;;;;;17.77;11.90;;;5.30;94.00;;;;;;5043842;28;20541;-51
2022/01/14 06:08:49;;;;;;;16.97;10.73;;;5.30;88.40;;;;;;5042285;28;21002;-51
2022/01/14 06:11:15;;;;;;;33.37;11.50;;;5.30;99.90;;;;;;5043077;28;20911;-52
2022/01/14 06:13:42;;;;;;;27.27;11.80;;;5.30;99.90;;;;;;5044825;28;20477;-51
2022/01/14 06:16:09;;;;;;;16.40;10.07;;;5.40;99.90;;;;;;5045171;28;20635;-51
2022/01/14 06:18:37;;;;;;;17.77;9.87;;;5.40;99.90;;;;;;5046444;28;20465;-52
2022/01/14 06:21:04;;;;;;;18.30;11.80;;;5.40;99.90;;;;;;5051532;28;20517;-51
2022/01/14 06:23:32;;;;;;;24.13;10.90;;;5.40;99.90;;;;;;5051273;28;20470;-52
2022/01/14 06:25:58;;;;;;;18.10;10.50;;;5.40;99.90;;;;;;5049594;28;20928;-49
2022/01/14 06:28:25;;;;;;;13.17;8.57;;;5.50;99.90;;;;;;5040537;28;20450;-51
2022/01/14 06:30:52;;;;;;;17.93;9.20;;;5.50;99.90;;;;;;5051239;28;20891;-52
2022/01/14 06:33:19;;;;;;;18.83;9.17;;;5.50;99.90;;;;;;5048857;28;20489;-51
2022/01/14 06:35:49;;;;;;;16.33;9.67;;;5.50;99.90;;;;;;5048587;28;20481;-52
2022/01/14 06:38:16;;;;;;;15.37;8.77;;;5.60;77.10;;;;;;5034508;28;20530;-51
2022/01/14 06:40:43;;;;;;;23.90;9.10;;;5.60;38.60;;;;;;5049442;28;20893;-51
2022/01/14 06:43:09;;;;;;;12.20;8.60;;;5.60;37.10;;;;;;5051268;28;20434;-51
2022/01/14 06:45:36;;;;;;;17.03;8.90;;;5.60;53.70;;;;;;5049997;28;20478;-51
2022/01/14 06:48:03;;;;;;;16.53;7.57;;;5.60;52.50;;;;;;5037518;28;20501;-55
2022/01/14 06:50:29;;;;;;;19.20;8.30;;;5.60;56.10;;;;;;5051446;28;20481;-53
2022/01/14 06:52:57;;;;;;;16.93;8.10;;;5.70;70.10;;;;;;5049096;28;20475;-53
2022/01/14 06:55:24;;;;;;;19.83;7.70;;;5.70;77.40;;;;;;5051128;28;20486;-51
2022/01/14 06:57:50;;;;;;;12.70;7.67;;;5.70;82.00;;;;;;5036400;28;20495;-52
2022/01/14 07:00:19;;;;;;;19.43;7.90;;;5.70;88.40;;;;;;5048412;28;20899;-51
2022/01/14 07:02:46;;;;;;;12.03;6.50;;;5.70;93.70;;;;;;5044533;28;20593;-51
2022/01/14 07:05:13;;;;;;;10.50;6.77;;;5.70;92.80;;;;;;5048191;28;20549;-51
2022/01/14 07:07:40;;;;;;;10.00;5.87;;;5.70;99.60;;;;;;5041598;28;20540;-53
2022/01/14 07:10:09;;;;;;;14.47;6.30;;;5.70;96.20;;;;;;5053069;28;20449;-52
2022/01/14 07:12:38;;;;;;;13.00;6.17;;;5.70;99.90;;;;;;5054841;28;20526;-51
2022/01/14 07:15:08;;;;;;;17.70;7.40;;;5.70;99.90;;;;;;5049377;28;20908;-51
2022/01/14 07:17:35;;;;;;;8.47;6.40;;;5.70;99.10;;;;;;5052735;28;20479;-52
2022/01/14 07:20:06;;;;;;;16.70;7.17;;;5.70;97.30;;;;;;5054367;28;20517;-51
2022/01/14 07:22:34;;;;;;;11.40;6.77;;;5.70;99.90;;;;;;5054504;28;20454;-53
2022/01/14 07:25:01;;;;;;;9.10;6.83;;;5.80;99.90;;;;;;5053890;28;20478;-50
2022/01/14 07:27:28;;;;;;;8.50;5.80;;;5.80;99.90;;;;;;5053265;28;20546;-51
2022/01/14 07:29:55;;;;;;;12.53;6.53;;;5.80;99.90;;;;;;5052554;28;20496;-51
2022/01/14 07:32:22;;;;;;;8.10;5.93;;;5.80;99.90;;;;;;5038305;28;20541;-51
2022/01/14 07:34:49;;;;;;;13.67;6.60;;;5.80;99.90;;;;;;5052433;28;20993;-52
2022/01/14 07:37:16;;;;;;;14.17;7.30;;;5.80;99.90;;;;;;5051468;28;21025;-52
2022/01/14 07:39:43;;;;;;;8.33;6.10;;;5.80;95.30;;;;;;5051024;28;20457;-52
2022/01/14 07:42:10;;;;;;;12.47;6.77;;;5.80;94.80;;;;;;5049351;28;20986;-51
2022/01/14 07:44:38;;;;;;;12.67;7.07;;;5.70;88.50;;;;;;5051508;28;20544;-52
2022/01/14 07:47:06;;;;;;;13.13;6.40;;;5.80;88.80;;;;;;5040534;28;20489;-52
2022/01/14 07:49:32;;;;;;;9.20;7.37;;;5.80;85.90;;;;;;5049959;28;20520;-52
2022/01/14 07:51:59;;;;;;;21.17;8.00;;;5.80;85.60;;;;;;5047946;28;20490;-51
2022/01/14 07:54:26;;;;;;;16.00;9.13;;;5.80;87.80;;;;;;5052957;28;20515;-52
2022/01/14 07:56:57;;;;;;;12.97;7.93;;;5.70;85.10;;;;;;5046222;28;20967;-52
2022/01/14 07:59:27;;;;;;;9.20;6.73;;;5.70;82.00;;;;;;5052829;28;20537;-52
2022/01/14 08:01:58;;;;;;;16.33;6.85;;;5.70;80.40;;;;;;5050287;28;20987;-52
2022/01/14 08:04:25;;;;;;;16.83;8.40;;;5.70;70.90;;;;;;5052261;28;20203;-52
2022/01/14 08:06:54;;;;;;;14.20;7.77;;;5.70;68.20;;;;;;5041475;28;21049;-52
2022/01/14 08:09:22;;;;;;;11.97;6.80;;;5.70;75.20;;;;;;5038295;28;20493;-51
2022/01/14 08:11:50;;;;;;;12.93;8.07;;;5.80;71.40;;;;;;5052571;28;20468;-51
2022/01/14 08:14:16;;;;;;;18.27;8.57;;;5.80;71.00;;;;;;5051813;28;20497;-52
2022/01/14 08:16:43;;;;;;;14.17;7.97;;;5.80;67.80;;;;;;5052175;28;21006;-52
2022/01/14 08:19:11;;;;;;;18.17;9.57;;;5.70;57.60;;;;;;5052312;28;21432;-52
2022/01/14 08:21:37;;;;;;;15.20;8.57;;;5.70;50.90;;;;;;5053108;28;20473;-52
2022/01/14 08:24:04;;;;;;;15.53;9.50;;;5.80;48.00;;;;;;5041680;28;20470;-51
2022/01/14 08:26:31;;;;;;;15.73;9.33;;;5.80;44.10;;;;;;5046723;28;21187;-52
2022/01/14 08:28:58;;;;;;;20.73;10.47;;;5.70;37.70;;;;;;5038413;28;20498;-52
2022/01/14 08:31:25;;;;;;;13.87;8.97;;;5.70;39.00;;;;;;5050950;28;20524;-50
2022/01/14 08:33:51;;;;;;;16.10;9.50;;;5.80;35.20;;;;;;5043506;28;20470;-52
2022/01/14 08:36:20;;;;;;;14.73;10.10;;;5.70;28.30;;;;;;5039255;28;21041;-51
2022/01/14 08:38:47;;;;;;;18.70;9.30;;;5.70;21.30;;;;;;5039326;28;20453;-50
2022/01/14 08:41:13;;;;;;;23.63;9.30;;;5.70;22.50;;;;;;5038928;28;21026;-52
2022/01/14 08:43:40;;;;;;;21.07;10.80;;;5.70;94.30;;;;;;5037268;28;20473;-50
2022/01/14 08:46:06;;;;;;;25.50;9.00;;;5.70;99.90;;;;;;5037438;28;20482;-51
2022/01/14 08:48:34;;;;;;;12.87;8.93;;;5.70;99.90;;;;;;5038862;28;20521;-52
2022/01/14 08:51:02;;;;;;;15.63;9.57;;;5.70;99.90;;;;;;5039368;28;20549;-50
2022/01/14 08:53:30;;;;;;;17.17;10.17;;;5.60;99.90;;;;;;5041555;28;20461;-52
2022/01/14 08:55:57;;;;;;;21.00;9.20;;;5.70;99.90;;;;;;5040053;28;20580;-51
2022/01/14 08:58:24;;;;;;;22.63;9.00;;;5.70;99.90;;;;;;5041336;28;20492;-51
2022/01/14 09:00:51;;;;;;;21.83;10.13;;;5.70;99.90;;;;;;5043160;28;20636;-50
2022/01/14 09:03:17;;;;;;;16.63;9.60;;;5.60;99.90;;;;;;5046296;28;20466;-51
2022/01/14 09:05:44;;;;;;;21.87;10.13;;;5.60;99.90;;;;;;5050130;28;20504;-51
2022/01/14 09:08:11;;;;;;;14.33;8.57;;;5.70;99.90;;;;;;5047904;28;20576;-52
2022/01/14 09:10:39;;;;;;;15.27;8.40;;;5.70;99.90;;;;;;5051005;28;20461;-52
2022/01/14 09:13:06;;;;;;;19.03;8.40;;;5.70;99.90;;;;;;5050860;28;20473;-51
2022/01/14 09:15:33;;;;;;;12.10;8.60;;;5.70;99.90;;;;;;5039642;28;20836;-52
2022/01/14 09:18:00;;;;;;;17.07;8.80;;;5.70;99.90;;;;;;5046862;28;21005;-51
2022/01/14 09:20:27;;;;;;;13.90;8.40;;;5.70;99.90;;;;;;5044716;28;20496;-51
2022/01/14 09:22:57;;;;;;;20.60;9.63;;;5.70;99.90;;;;;;5048097;28;20460;-51
2022/01/14 09:25:24;;;;;;;25.77;9.60;;;5.70;99.90;;;;;;5039768;28;20473;-51
2022/01/14 09:27:53;;;;;;;14.90;8.40;;;5.70;99.90;;;;;;5045378;28;20517;-50
2022/01/14 09:30:20;;;;;;;15.57;7.90;;;5.70;99.90;;;;;;5044165;28;20555;-52
2022/01/14 09:32:47;;;;;;;17.30;8.43;;;5.70;99.90;;;;;;5043096;28;20458;-50
2022/01/14 09:35:14;;;;;;;17.30;8.20;;;5.70;99.90;;;;;;5045170;28;20493;-52
2022/01/14 09:37:41;;;;;;;13.57;7.77;;;5.80;99.90;;;;;;5043603;28;20484;-50
2022/01/14 09:40:08;;;;;;;15.50;7.20;;;5.80;97.10;;;;;;5045554;28;20493;-51
2022/01/14 09:42:35;;;;;;;15.70;7.93;;;5.70;99.90;;;;;;5037012;28;21795;-51
2022/01/14 09:45:04;;;;;;;15.93;7.33;;;5.80;99.90;;;;;;5043468;28;21005;-51
2022/01/14 09:47:31;;;;;;;12.87;7.43;;;5.80;99.90;;;;;;5043012;28;20547;-50
2022/01/14 09:49:57;;;;;;;14.63;7.67;;;5.80;99.90;;;;;;5047468;28;20545;-51
2022/01/14 09:52:24;;;;;;;19.57;7.10;;;5.80;99.90;;;;;;5042677;28;20485;-50
2022/01/14 09:54:51;;;;;;;16.30;8.17;;;5.70;99.90;;;;;;5047802;28;20577;-52
2022/01/14 09:57:19;;;;;;;13.50;7.20;;;5.80;99.90;;;;;;5047042;28;20970;-52
2022/01/14 09:59:46;;;;;;;12.83;6.90;;;5.80;99.90;;;;;;5044425;28;20459;-50
2022/01/14 10:02:29;;;;;;;13.73;7.00;;;5.80;99.90;;;;;;5041598;28;20556;-51
2022/01/14 10:04:56;;;;;;;16.93;8.23;;;5.80;99.90;;;;;;5047542;28;20887;-52
2022/01/14 10:07:22;;;;;;;16.50;8.23;;;5.80;99.90;;;;;;5045720;28;20900;-52
2022/01/14 10:09:55;;;;;;;20.70;7.50;;;5.80;99.90;;;;;;5046061;28;20458;-51
2022/01/14 10:12:22;;;;;;;18.27;6.10;;;5.80;99.90;;;;;;5049107;28;20833;-52
2022/01/14 10:14:54;;;;;;;10.00;6.10;;;5.80;88.50;;;;;;5044712;28;20466;-52
2022/01/14 10:17:21;;;;;;;10.63;6.33;;;5.90;99.90;;;;;;5044058;28;20590;-50
2022/01/14 10:19:49;;;;;;;12.17;6.40;;;5.90;34.30;;;;;;5044237;28;20540;-50
2022/01/14 10:22:20;;;;;;;17.30;7.13;;;5.90;22.90;;;;;;5042766;28;20560;-51
2022/01/14 10:24:58;;;;;;;17.03;8.10;;;5.90;34.60;;;;;;5043572;28;20541;-50
2022/01/14 10:27:33;;;;;;;17.67;6.93;;;6.00;39.70;;;;;;5038649;28;20473;-51
2022/01/14 10:30:11;;;;;;;9.70;6.60;;;6.00;50.10;;;;;;5041508;28;20549;-52
2022/01/14 10:32:38;;;;;;;12.33;5.97;;;6.00;54.10;;;;;;5049704;28;20481;-51
2022/01/14 10:35:08;;;;;;;15.27;6.17;;;6.10;61.40;;;;;;5043488;28;20461;-51
2022/01/14 10:37:36;;;;;;;14.93;6.97;;;6.10;64.80;;;;;;5034557;28;20596;-51
2022/01/14 10:40:05;;;;;;;10.77;5.47;;;6.20;65.10;;;;;;5039986;28;20556;-51
2022/01/14 10:42:34;;;;;;;15.50;6.47;;;6.20;81.60;;;;;;5038077;28;20457;-50
2022/01/14 10:45:19;;;;;;;11.10;5.60;;;6.30;84.30;;;;;;5051954;28;20559;-53
2022/01/14 10:47:58;;;;;;;13.27;5.17;;;6.30;89.20;;;;;;5046222;23;20862;-57
2022/01/14 10:50:36;;;;;;;13.40;5.20;;;6.30;94.40;;;;;;5026594;28;20547;-56
2022/01/14 10:53:12;;;;;;;11.57;5.03;;;6.30;91.90;;;;;;5029441;28;20462;-57
2022/01/14 10:55:42;;;;;;;17.47;6.30;;;6.30;88.90;;;;;;5026726;28;20462;-57
2022/01/14 10:58:14;;;;;;;16.07;5.20;;;6.30;83.00;;;;;;5029195;28;20897;-57
2022/01/14 11:00:43;;;;;;;19.80;6.47;;;6.30;90.30;;;;;;5028240;28;20478;-56
2022/01/14 11:03:10;;;;;;;14.47;4.80;;;6.40;93.80;;;;;;5025172;28;20974;-59
2022/01/14 11:05:39;;;;;;;12.50;6.20;;;6.30;89.70;;;;;;5029514;28;20545;-57
2022/01/14 11:08:07;;;;;;;17.53;4.73;;;6.30;83.60;;;;;;5026817;28;20525;-57
2022/01/14 11:10:35;;;;;;;10.70;5.30;;;6.40;84.00;;;;;;5028650;28;20827;-57
2022/01/14 11:13:05;;;;;;;13.10;5.60;;;6.40;82.70;;;;;;5022560;28;20972;-57
2022/01/14 11:15:32;;;;;;;11.93;5.50;;;6.40;79.40;;;;;;5028122;28;20458;-59
2022/01/14 11:18:02;;;;;;;12.27;5.90;;;6.30;70.50;;;;;;5026030;28;20514;-57
2022/01/14 11:20:33;;;;;;;14.83;5.50;;;6.30;63.10;;;;;;5028779;28;20455;-57
2022/01/14 11:23:16;;;;;;;12.00;5.97;;;6.30;50.60;;;;;;5022492;28;20455;-56
2022/01/14 11:25:48;;;;;;;16.17;6.03;;;6.30;51.60;;;;;;5022843;28;21318;-56
2022/01/14 11:28:19;;;;;;;13.23;5.30;;;6.30;41.40;;;;;;5025009;28;21071;-57
2022/01/14 11:30:46;;;;;;;18.37;6.13;;;6.30;30.30;;;;;;5025401;28;20575;-56
2022/01/14 11:33:15;;;;;;;18.93;5.47;;;6.30;24.20;;;;;;5026451;28;20494;-57
2022/01/14 11:35:52;;;;;;;14.47;5.60;;;6.20;92.00;;;;;;5024419;28;20459;-57
2022/01/14 11:38:41;;;;;;;11.30;4.70;;;6.20;99.90;;;;;;5027782;28;20569;-56
2022/01/14 11:41:10;;;;;;;12.40;5.77;;;6.20;99.90;;;;;;5023902;28;20466;-56
2022/01/14 11:43:50;;;;;;;10.93;5.03;;;6.30;86.50;;;;;;5028608;28;20474;-56
2022/01/14 11:46:43;;;;;;;10.77;5.03;;;6.30;99.90;;;;;;5023281;28;20550;-56
2022/01/14 11:49:31;;;;;;;8.60;4.47;;;6.30;99.90;;;;;;5021545;28;20483;-56
2022/01/14 11:52:00;;;;;;;16.37;6.37;;;6.30;99.90;;;;;;5026712;28;20463;-57
2022/01/14 11:54:43;;;;;;;14.23;5.80;;;6.30;99.90;;;;;;5027095;28;20895;-57
2022/01/14 11:57:10;;;;;;;16.57;5.50;;;6.30;99.90;;;;;;5030147;28;20527;-57
2022/01/14 11:59:39;;;;;;;15.07;4.83;;;6.40;99.90;;;;;;5024292;28;20518;-57
2022/01/14 12:02:31;;;;;;;12.33;4.80;;;6.40;99.90;;;;;;5026722;28;20470;-56
2022/01/14 12:05:05;;;;;;;11.50;4.73;;;6.30;99.90;;;;;;5023070;28;20581;-58
2022/01/14 12:07:32;;;;;;;9.33;4.47;;;6.40;99.90;;;;;;5027928;28;20474;-57
2022/01/14 12:10:07;;;;;;;15.07;4.20;;;6.40;99.90;;;;;;5028294;28;20584;-57
2022/01/14 12:12:34;;;;;;;21.33;5.40;;;6.40;99.90;;;;;;5033749;28;20443;-57
2022/01/14 12:15:03;;;;;;;19.37;4.90;;;6.40;99.90;;;;;;5033279;28;20461;-58
2022/01/14 12:17:34;;;;;;;13.83;4.40;;;6.40;99.90;;;;;;5027142;28;20498;-57
2022/01/14 12:20:08;;;;;;;22.07;4.60;;;6.40;99.90;;;;;;5032528;28;20983;-50
2022/01/14 12:22:35;;;;;;;6.93;3.47;;;6.40;99.90;;;;;;5032455;28;20469;-51
2022/01/14 12:25:04;;;;;;;7.80;4.20;;;6.30;99.90;;;;;;5033032;28;20542;-50
2022/01/14 12:27:46;;;;;;;9.83;4.73;;;6.40;99.90;;;;;;5031469;28;20581;-51
2022/01/14 12:30:24;;;;;;;14.03;4.57;;;6.40;99.90;;;;;;5030829;28;20470;-51
2022/01/14 12:32:54;;;;;;;11.80;3.83;;;6.40;99.90;;;;;;5031036;28;20469;-51
2022/01/14 12:35:29;;;;;;;12.33;4.57;;;6.40;99.90;;;;;;5032477;28;21034;-51
2022/01/14 12:37:57;;;;;;;9.77;4.20;;;6.40;99.90;;;;;;5026648;28;20489;-51
2022/01/14 12:40:27;;;;;;;11.07;4.47;;;6.40;99.90;;;;;;5032550;28;20501;-51
2022/01/14 12:42:56;;;;;;;18.83;4.97;;;6.40;99.90;;;;;;5029623;28;20919;-51
2022/01/14 12:45:28;;;;;;;10.20;5.00;;;6.40;99.90;;;;;;5031150;28;20469;-51
2022/01/14 12:48:05;;;;;;;12.77;4.97;;;6.40;99.90;;;;;;5031508;28;20498;-51
2022/01/14 12:50:31;;;;;;;17.47;5.10;;;6.40;99.90;;;;;;5031506;28;21022;-51
2022/01/14 12:52:58;;;;;;;11.70;4.17;;;6.40;99.90;;;;;;5030052;28;21033;-48
2022/01/14 12:55:26;;;;;;;12.23;4.70;;;6.40;99.90;;;;;;5031557;28;21011;-48
2022/01/14 12:57:57;;;;;;;7.00;4.03;;;6.40;99.90;;;;;;5032147;28;20486;-47
2022/01/14 13:00:24;;;;;;;13.40;4.53;;;6.40;99.90;;;;;;5029200;28;20815;-48
2022/01/14 13:02:51;;;;;;;11.57;4.97;;;6.40;99.90;;;;;;5032187;28;20471;-48
2022/01/14 13:05:20;;;;;;;6.93;4.00;;;6.40;99.90;;;;;;5032107;28;20521;-46
2022/01/14 13:07:47;;;;;;;9.70;4.80;;;6.30;99.90;;;;;;5030056;28;20489;-48